Etusivu
METAR-TAF:

METAR-TAF

Lentoasemat :

Perry Stokes Airport

Trinidad, Colorado, Yhdysvallat

Leveyspiiri: 37-16N, Pituuspiiri: 104-26W, korkeus merenpinnasta: 1756 m

Tämänhetkinen sää

Tämä raportti tehtiin 1 tunti ja 5 minuuttia sitten, kello 07.54 UTC
Tuuli 9 kn lännestä/luoteesta
Lämpötila 26°C
Kosteus 26%
Ilmanpaine 1020 hPa
Näkyvyys: 16.1 km
selkeää

METAR: KTAD 200754Z AUTO 29009KT 10SM CLR 26/05 A3013 RMK AO2 SLP089 T02610050

Aika: 02:59 (08:59 UTC)


TAF: puuttuu

Säähavainnot ja -ennusteet yli 4000 lentoasemalta (METAR- ja TAF-raportit).

Käytössä olevat sääasemat on merkitty karttaan keltaisilla ja punaisilla pisteillä.

Aseta hiiri pisteen päälle nähdäksesi sääaseman nimen.

Klikkaa sitten nähdäksesi säähavainnot ja -ennusteet.

Kartan vaihtaminen: klikkaa mustalla rastilla varustettuja vihreitä pisteitä, niin voit zoomata sisään; viivalla varustettua vihreää pistettä, niin voit zoomata ulos tai vihreitä nuolia, niin pääset viereisille kartoille.


METAR-TAF: